sensor_id;sensor_type;location;lat;lon;timestamp;P1;durP1;ratioP1;P2;durP2;ratioP2
13933;SDS011;7039;52.168;9.866;2022-12-01T00:00:21;56.43;;;28.70;;
13933;SDS011;7039;52.168;9.866;2022-12-01T00:02:48;58.77;;;28.77;;
13933;SDS011;7039;52.168;9.866;2022-12-01T00:05:16;56.63;;;27.37;;
13933;SDS011;7039;52.168;9.866;2022-12-01T00:07:42;64.30;;;29.57;;
13933;SDS011;7039;52.168;9.866;2022-12-01T00:10:09;56.77;;;26.77;;
13933;SDS011;7039;52.168;9.866;2022-12-01T00:12:51;58.70;;;27.83;;
13933;SDS011;7039;52.168;9.866;2022-12-01T00:15:17;58.80;;;26.83;;
13933;SDS011;7039;52.168;9.866;2022-12-01T00:17:44;58.50;;;27.47;;
13933;SDS011;7039;52.168;9.866;2022-12-01T00:20:11;56.97;;;27.40;;
13933;SDS011;7039;52.168;9.866;2022-12-01T00:22:42;57.80;;;27.40;;
13933;SDS011;7039;52.168;9.866;2022-12-01T00:25:09;68.53;;;28.97;;
13933;SDS011;7039;52.168;9.866;2022-12-01T00:27:35;56.43;;;27.10;;
13933;SDS011;7039;52.168;9.866;2022-12-01T00:30:02;54.50;;;27.50;;
13933;SDS011;7039;52.168;9.866;2022-12-01T00:32:30;54.80;;;27.63;;
13933;SDS011;7039;52.168;9.866;2022-12-01T00:34:56;53.90;;;27.10;;
13933;SDS011;7039;52.168;9.866;2022-12-01T00:37:24;56.40;;;27.03;;
13933;SDS011;7039;52.168;9.866;2022-12-01T00:39:52;57.67;;;28.87;;
13933;SDS011;7039;52.168;9.866;2022-12-01T00:42:18;63.70;;;28.63;;
13933;SDS011;7039;52.168;9.866;2022-12-01T00:44:45;58.87;;;28.50;;
13933;SDS011;7039;52.168;9.866;2022-12-01T00:47:12;58.60;;;28.80;;
13933;SDS011;7039;52.168;9.866;2022-12-01T00:49:39;59.73;;;28.87;;
13933;SDS011;7039;52.168;9.866;2022-12-01T00:52:05;59.57;;;28.87;;
13933;SDS011;7039;52.168;9.866;2022-12-01T00:54:32;54.57;;;27.60;;
13933;SDS011;7039;52.168;9.866;2022-12-01T00:57:00;59.93;;;28.97;;
13933;SDS011;7039;52.168;9.866;2022-12-01T00:59:26;63.83;;;29.57;;
13933;SDS011;7039;52.168;9.866;2022-12-01T01:01:52;66.33;;;30.63;;
13933;SDS011;7039;52.168;9.866;2022-12-01T01:04:19;62.17;;;29.97;;
13933;SDS011;7039;52.168;9.866;2022-12-01T01:06:46;66.80;;;31.30;;
13933;SDS011;7039;52.168;9.866;2022-12-01T01:09:13;69.33;;;32.07;;
13933;SDS011;7039;52.168;9.866;2022-12-01T01:11:40;69.10;;;30.93;;
13933;SDS011;7039;52.168;9.866;2022-12-01T01:14:08;67.70;;;32.53;;
13933;SDS011;7039;52.168;9.866;2022-12-01T01:16:34;67.33;;;32.20;;
13933;SDS011;7039;52.168;9.866;2022-12-01T01:19:00;68.03;;;31.80;;
13933;SDS011;7039;52.168;9.866;2022-12-01T01:21:27;67.27;;;31.33;;
13933;SDS011;7039;52.168;9.866;2022-12-01T01:23:54;77.17;;;34.47;;
13933;SDS011;7039;52.168;9.866;2022-12-01T01:26:21;73.37;;;33.60;;
13933;SDS011;7039;52.168;9.866;2022-12-01T01:28:49;71.90;;;32.73;;
13933;SDS011;7039;52.168;9.866;2022-12-01T01:31:18;75.47;;;34.53;;
13933;SDS011;7039;52.168;9.866;2022-12-01T01:33:46;78.97;;;34.93;;
13933;SDS011;7039;52.168;9.866;2022-12-01T01:36:13;74.27;;;35.43;;
13933;SDS011;7039;52.168;9.866;2022-12-01T01:38:41;82.37;;;35.77;;
13933;SDS011;7039;52.168;9.866;2022-12-01T01:41:07;88.13;;;37.60;;
13933;SDS011;7039;52.168;9.866;2022-12-01T01:43:38;92.50;;;38.43;;
13933;SDS011;7039;52.168;9.866;2022-12-01T01:46:08;100.63;;;40.53;;
13933;SDS011;7039;52.168;9.866;2022-12-01T01:48:38;102.70;;;42.23;;
13933;SDS011;7039;52.168;9.866;2022-12-01T01:51:07;118.40;;;44.30;;
13933;SDS011;7039;52.168;9.866;2022-12-01T01:53:34;119.67;;;44.13;;
13933;SDS011;7039;52.168;9.866;2022-12-01T01:56:01;112.00;;;44.83;;
13933;SDS011;7039;52.168;9.866;2022-12-01T01:58:28;122.70;;;45.73;;
13933;SDS011;7039;52.168;9.866;2022-12-01T02:00:56;108.40;;;41.60;;
13933;SDS011;7039;52.168;9.866;2022-12-01T02:03:23;102.33;;;41.20;;
13933;SDS011;7039;52.168;9.866;2022-12-01T02:05:51;105.57;;;41.10;;
13933;SDS011;7039;52.168;9.866;2022-12-01T02:08:18;95.90;;;38.03;;
13933;SDS011;7039;52.168;9.866;2022-12-01T02:10:48;92.47;;;36.73;;
13933;SDS011;7039;52.168;9.866;2022-12-01T02:13:30;90.60;;;35.57;;
13933;SDS011;7039;52.168;9.866;2022-12-01T02:16:07;91.37;;;35.27;;
13933;SDS011;7039;52.168;9.866;2022-12-01T02:18:40;84.73;;;34.87;;
13933;SDS011;7039;52.168;9.866;2022-12-01T02:21:23;85.83;;;34.87;;
13933;SDS011;7039;52.168;9.866;2022-12-01T02:24:21;89.47;;;36.00;;
13933;SDS011;7039;52.168;9.866;2022-12-01T02:27:16;85.50;;;34.50;;
13933;SDS011;7039;52.168;9.866;2022-12-01T02:30:06;87.33;;;33.57;;
13933;SDS011;7039;52.168;9.866;2022-12-01T02:32:41;87.07;;;34.87;;
13933;SDS011;7039;52.168;9.866;2022-12-01T02:35:11;91.03;;;35.37;;
13933;SDS011;7039;52.168;9.866;2022-12-01T02:37:42;87.17;;;33.07;;
13933;SDS011;7039;52.168;9.866;2022-12-01T02:40:16;88.17;;;34.53;;
13933;SDS011;7039;52.168;9.866;2022-12-01T02:42:51;89.13;;;34.10;;
13933;SDS011;7039;52.168;9.866;2022-12-01T02:45:27;89.63;;;35.17;;
13933;SDS011;7039;52.168;9.866;2022-12-01T02:48:03;96.43;;;36.93;;
13933;SDS011;7039;52.168;9.866;2022-12-01T02:50:34;97.20;;;35.53;;
13933;SDS011;7039;52.168;9.866;2022-12-01T02:53:03;95.33;;;34.80;;
13933;SDS011;7039;52.168;9.866;2022-12-01T02:55:34;87.67;;;34.43;;
13933;SDS011;7039;52.168;9.866;2022-12-01T02:58:00;96.83;;;35.60;;
13933;SDS011;7039;52.168;9.866;2022-12-01T03:00:27;101.37;;;38.00;;
13933;SDS011;7039;52.168;9.866;2022-12-01T03:03:13;102.33;;;38.10;;
13933;SDS011;7039;52.168;9.866;2022-12-01T03:05:57;95.00;;;35.03;;
13933;SDS011;7039;52.168;9.866;2022-12-01T03:08:34;96.97;;;35.23;;
13933;SDS011;7039;52.168;9.866;2022-12-01T03:11:13;105.00;;;38.07;;
13933;SDS011;7039;52.168;9.866;2022-12-01T03:13:56;103.83;;;35.87;;
13933;SDS011;7039;52.168;9.866;2022-12-01T03:16:41;111.53;;;36.93;;
13933;SDS011;7039;52.168;9.866;2022-12-01T03:19:17;105.77;;;37.00;;
13933;SDS011;7039;52.168;9.866;2022-12-01T03:21:51;96.73;;;35.60;;
13933;SDS011;7039;52.168;9.866;2022-12-01T03:24:22;106.43;;;38.93;;
13933;SDS011;7039;52.168;9.866;2022-12-01T03:26:54;108.33;;;36.27;;
13933;SDS011;7039;52.168;9.866;2022-12-01T03:29:23;114.23;;;38.87;;
13933;SDS011;7039;52.168;9.866;2022-12-01T03:31:55;105.00;;;37.87;;
13933;SDS011;7039;52.168;9.866;2022-12-01T03:34:30;96.93;;;36.20;;
13933;SDS011;7039;52.168;9.866;2022-12-01T03:37:02;105.10;;;36.83;;
13933;SDS011;7039;52.168;9.866;2022-12-01T03:39:33;97.63;;;35.77;;
13933;SDS011;7039;52.168;9.866;2022-12-01T03:42:04;97.60;;;35.03;;
13933;SDS011;7039;52.168;9.866;2022-12-01T03:44:35;108.03;;;38.50;;
13933;SDS011;7039;52.168;9.866;2022-12-01T03:47:08;112.77;;;39.30;;
13933;SDS011;7039;52.168;9.866;2022-12-01T03:49:39;111.67;;;38.33;;
13933;SDS011;7039;52.168;9.866;2022-12-01T03:52:08;99.00;;;35.13;;
13933;SDS011;7039;52.168;9.866;2022-12-01T03:54:41;93.30;;;35.27;;
13933;SDS011;7039;52.168;9.866;2022-12-01T03:57:16;88.40;;;33.53;;
13933;SDS011;7039;52.168;9.866;2022-12-01T03:59:48;81.20;;;31.57;;
13933;SDS011;7039;52.168;9.866;2022-12-01T04:02:15;86.47;;;31.93;;
13933;SDS011;7039;52.168;9.866;2022-12-01T04:04:43;82.23;;;31.70;;
13933;SDS011;7039;52.168;9.866;2022-12-01T04:07:10;80.83;;;29.23;;
13933;SDS011;7039;52.168;9.866;2022-12-01T04:09:37;79.67;;;33.33;;
13933;SDS011;7039;52.168;9.866;2022-12-01T04:12:04;84.90;;;31.27;;
13933;SDS011;7039;52.168;9.866;2022-12-01T04:14:49;92.13;;;31.40;;
13933;SDS011;7039;52.168;9.866;2022-12-01T04:17:15;87.30;;;33.00;;
13933;SDS011;7039;52.168;9.866;2022-12-01T04:19:43;93.53;;;32.43;;
13933;SDS011;7039;52.168;9.866;2022-12-01T04:22:10;85.67;;;33.37;;
13933;SDS011;7039;52.168;9.866;2022-12-01T04:24:36;95.57;;;32.73;;
13933;SDS011;7039;52.168;9.866;2022-12-01T04:27:03;98.63;;;34.93;;
13933;SDS011;7039;52.168;9.866;2022-12-01T04:29:29;99.87;;;35.03;;
13933;SDS011;7039;52.168;9.866;2022-12-01T04:31:56;104.33;;;34.07;;
13933;SDS011;7039;52.168;9.866;2022-12-01T04:34:23;106.87;;;34.70;;
13933;SDS011;7039;52.168;9.866;2022-12-01T04:36:51;104.40;;;34.83;;
13933;SDS011;7039;52.168;9.866;2022-12-01T04:39:18;116.43;;;35.93;;
13933;SDS011;7039;52.168;9.866;2022-12-01T04:41:44;107.53;;;35.87;;
13933;SDS011;7039;52.168;9.866;2022-12-01T04:44:11;102.33;;;34.17;;
13933;SDS011;7039;52.168;9.866;2022-12-01T04:46:37;112.57;;;34.87;;
13933;SDS011;7039;52.168;9.866;2022-12-01T04:49:04;98.07;;;33.83;;
13933;SDS011;7039;52.168;9.866;2022-12-01T04:51:30;114.20;;;36.13;;
13933;SDS011;7039;52.168;9.866;2022-12-01T04:53:58;98.83;;;33.90;;
13933;SDS011;7039;52.168;9.866;2022-12-01T04:56:26;90.50;;;32.10;;
13933;SDS011;7039;52.168;9.866;2022-12-01T04:58:53;89.53;;;30.53;;
13933;SDS011;7039;52.168;9.866;2022-12-01T05:01:19;85.87;;;30.77;;
13933;SDS011;7039;52.168;9.866;2022-12-01T05:03:46;82.20;;;30.73;;
13933;SDS011;7039;52.168;9.866;2022-12-01T05:06:15;92.93;;;32.00;;
13933;SDS011;7039;52.168;9.866;2022-12-01T05:08:43;86.20;;;31.30;;
13933;SDS011;7039;52.168;9.866;2022-12-01T05:11:11;84.97;;;31.27;;
13933;SDS011;7039;52.168;9.866;2022-12-01T05:13:41;79.60;;;30.40;;
13933;SDS011;7039;52.168;9.866;2022-12-01T05:16:10;81.27;;;29.60;;
13933;SDS011;7039;52.168;9.866;2022-12-01T05:18:38;86.87;;;31.17;;
13933;SDS011;7039;52.168;9.866;2022-12-01T05:21:05;90.63;;;30.47;;
13933;SDS011;7039;52.168;9.866;2022-12-01T05:23:33;89.10;;;31.43;;
13933;SDS011;7039;52.168;9.866;2022-12-01T05:26:01;84.63;;;31.07;;
13933;SDS011;7039;52.168;9.866;2022-12-01T05:28:31;88.97;;;31.10;;
13933;SDS011;7039;52.168;9.866;2022-12-01T05:30:57;82.70;;;30.27;;
13933;SDS011;7039;52.168;9.866;2022-12-01T05:33:26;85.30;;;30.70;;
13933;SDS011;7039;52.168;9.866;2022-12-01T05:35:54;90.80;;;31.33;;
13933;SDS011;7039;52.168;9.866;2022-12-01T05:38:21;91.87;;;32.47;;
13933;SDS011;7039;52.168;9.866;2022-12-01T05:40:50;89.73;;;31.17;;
13933;SDS011;7039;52.168;9.866;2022-12-01T05:43:17;90.73;;;32.60;;
13933;SDS011;7039;52.168;9.866;2022-12-01T05:45:46;96.23;;;31.60;;
13933;SDS011;7039;52.168;9.866;2022-12-01T05:48:13;86.87;;;32.47;;
13933;SDS011;7039;52.168;9.866;2022-12-01T05:50:40;85.77;;;32.13;;
13933;SDS011;7039;52.168;9.866;2022-12-01T05:53:06;93.93;;;32.33;;
13933;SDS011;7039;52.168;9.866;2022-12-01T05:55:35;84.73;;;31.57;;
13933;SDS011;7039;52.168;9.866;2022-12-01T05:58:02;86.17;;;31.87;;
13933;SDS011;7039;52.168;9.866;2022-12-01T06:00:28;90.03;;;32.93;;
13933;SDS011;7039;52.168;9.866;2022-12-01T06:02:56;76.43;;;29.70;;
13933;SDS011;7039;52.168;9.866;2022-12-01T06:05:23;92.90;;;31.37;;
13933;SDS011;7039;52.168;9.866;2022-12-01T06:07:49;91.73;;;33.03;;
13933;SDS011;7039;52.168;9.866;2022-12-01T06:10:16;95.70;;;32.50;;
13933;SDS011;7039;52.168;9.866;2022-12-01T06:12:42;93.43;;;32.93;;
13933;SDS011;7039;52.168;9.866;2022-12-01T06:15:09;91.40;;;33.30;;
13933;SDS011;7039;52.168;9.866;2022-12-01T06:17:36;91.33;;;31.60;;
13933;SDS011;7039;52.168;9.866;2022-12-01T06:20:05;95.63;;;32.47;;
13933;SDS011;7039;52.168;9.866;2022-12-01T06:22:33;99.00;;;33.37;;
13933;SDS011;7039;52.168;9.866;2022-12-01T06:24:59;92.73;;;32.77;;
13933;SDS011;7039;52.168;9.866;2022-12-01T06:27:26;94.57;;;32.80;;
13933;SDS011;7039;52.168;9.866;2022-12-01T06:29:52;97.37;;;32.67;;
13933;SDS011;7039;52.168;9.866;2022-12-01T06:32:19;104.23;;;34.43;;
13933;SDS011;7039;52.168;9.866;2022-12-01T06:34:45;92.07;;;32.57;;
13933;SDS011;7039;52.168;9.866;2022-12-01T06:37:13;100.33;;;34.23;;
13933;SDS011;7039;52.168;9.866;2022-12-01T06:39:40;94.90;;;33.03;;
13933;SDS011;7039;52.168;9.866;2022-12-01T06:42:07;98.80;;;33.17;;
13933;SDS011;7039;52.168;9.866;2022-12-01T06:44:33;95.43;;;31.93;;
13933;SDS011;7039;52.168;9.866;2022-12-01T06:47:00;94.27;;;31.93;;
13933;SDS011;7039;52.168;9.866;2022-12-01T06:49:26;80.80;;;30.73;;
13933;SDS011;7039;52.168;9.866;2022-12-01T06:51:53;83.77;;;29.67;;
13933;SDS011;7039;52.168;9.866;2022-12-01T06:54:21;83.67;;;30.73;;
13933;SDS011;7039;52.168;9.866;2022-12-01T06:56:47;86.77;;;28.67;;
13933;SDS011;7039;52.168;9.866;2022-12-01T06:59:13;77.13;;;29.33;;
13933;SDS011;7039;52.168;9.866;2022-12-01T07:01:43;97.73;;;32.17;;
13933;SDS011;7039;52.168;9.866;2022-12-01T07:04:10;87.30;;;30.53;;
13933;SDS011;7039;52.168;9.866;2022-12-01T07:06:36;82.73;;;29.97;;
13933;SDS011;7039;52.168;9.866;2022-12-01T07:09:03;85.87;;;30.27;;
13933;SDS011;7039;52.168;9.866;2022-12-01T07:11:31;85.63;;;29.10;;
13933;SDS011;7039;52.168;9.866;2022-12-01T07:14:00;88.77;;;29.90;;
13933;SDS011;7039;52.168;9.866;2022-12-01T07:16:26;84.47;;;30.17;;
13933;SDS011;7039;52.168;9.866;2022-12-01T07:18:53;86.00;;;28.93;;
13933;SDS011;7039;52.168;9.866;2022-12-01T07:21:19;81.17;;;28.83;;
13933;SDS011;7039;52.168;9.866;2022-12-01T07:23:46;83.13;;;29.00;;
13933;SDS011;7039;52.168;9.866;2022-12-01T07:26:13;84.27;;;30.13;;
13933;SDS011;7039;52.168;9.866;2022-12-01T07:28:42;86.63;;;29.10;;
13933;SDS011;7039;52.168;9.866;2022-12-01T07:31:10;77.13;;;29.37;;
13933;SDS011;7039;52.168;9.866;2022-12-01T07:33:38;85.43;;;29.67;;
13933;SDS011;7039;52.168;9.866;2022-12-01T07:36:05;76.77;;;26.23;;
13933;SDS011;7039;52.168;9.866;2022-12-01T07:38:32;77.17;;;28.20;;
13933;SDS011;7039;52.168;9.866;2022-12-01T07:41:00;83.37;;;28.63;;
13933;SDS011;7039;52.168;9.866;2022-12-01T07:43:28;75.60;;;27.67;;
13933;SDS011;7039;52.168;9.866;2022-12-01T07:45:56;69.80;;;25.90;;
13933;SDS011;7039;52.168;9.866;2022-12-01T07:48:23;75.93;;;26.97;;
13933;SDS011;7039;52.168;9.866;2022-12-01T07:50:49;66.43;;;25.60;;
13933;SDS011;7039;52.168;9.866;2022-12-01T07:53:15;81.90;;;27.63;;
13933;SDS011;7039;52.168;9.866;2022-12-01T07:55:46;74.90;;;26.20;;
13933;SDS011;7039;52.168;9.866;2022-12-01T07:58:13;71.90;;;27.80;;
13933;SDS011;7039;52.168;9.866;2022-12-01T08:00:39;72.53;;;27.67;;
13933;SDS011;7039;52.168;9.866;2022-12-01T08:03:07;68.13;;;25.13;;
13933;SDS011;7039;52.168;9.866;2022-12-01T08:05:34;74.00;;;27.70;;
13933;SDS011;7039;52.168;9.866;2022-12-01T08:08:00;80.47;;;27.73;;
13933;SDS011;7039;52.168;9.866;2022-12-01T08:10:27;78.40;;;27.90;;
13933;SDS011;7039;52.168;9.866;2022-12-01T08:12:53;77.87;;;28.33;;
13933;SDS011;7039;52.168;9.866;2022-12-01T08:15:20;83.87;;;29.20;;
13933;SDS011;7039;52.168;9.866;2022-12-01T08:17:46;83.63;;;27.40;;
13933;SDS011;7039;52.168;9.866;2022-12-01T08:20:14;84.03;;;27.80;;
13933;SDS011;7039;52.168;9.866;2022-12-01T08:22:40;89.73;;;29.13;;
13933;SDS011;7039;52.168;9.866;2022-12-01T08:25:07;91.97;;;29.87;;
13933;SDS011;7039;52.168;9.866;2022-12-01T08:27:34;80.37;;;27.87;;
13933;SDS011;7039;52.168;9.866;2022-12-01T08:30:00;101.70;;;36.37;;
13933;SDS011;7039;52.168;9.866;2022-12-01T08:32:27;92.67;;;31.90;;
13933;SDS011;7039;52.168;9.866;2022-12-01T08:34:54;87.67;;;31.33;;
13933;SDS011;7039;52.168;9.866;2022-12-01T08:37:22;93.97;;;33.47;;
13933;SDS011;7039;52.168;9.866;2022-12-01T08:39:48;92.13;;;32.37;;
13933;SDS011;7039;52.168;9.866;2022-12-01T08:42:15;89.73;;;30.30;;
13933;SDS011;7039;52.168;9.866;2022-12-01T08:44:41;116.03;;;43.07;;
13933;SDS011;7039;52.168;9.866;2022-12-01T08:47:07;90.53;;;30.87;;
13933;SDS011;7039;52.168;9.866;2022-12-01T08:49:34;84.93;;;30.03;;
13933;SDS011;7039;52.168;9.866;2022-12-01T08:52:00;88.43;;;30.87;;
13933;SDS011;7039;52.168;9.866;2022-12-01T08:54:28;106.53;;;37.83;;
13933;SDS011;7039;52.168;9.866;2022-12-01T08:56:54;102.67;;;35.10;;
13933;SDS011;7039;52.168;9.866;2022-12-01T08:59:21;121.33;;;41.30;;
13933;SDS011;7039;52.168;9.866;2022-12-01T09:01:47;200.77;;;66.80;;
13933;SDS011;7039;52.168;9.866;2022-12-01T09:04:22;132.20;;;46.43;;
13933;SDS011;7039;52.168;9.866;2022-12-01T09:06:50;111.20;;;43.90;;
13933;SDS011;7039;52.168;9.866;2022-12-01T09:09:18;105.10;;;35.40;;
13933;SDS011;7039;52.168;9.866;2022-12-01T09:11:47;107.30;;;36.53;;
13933;SDS011;7039;52.168;9.866;2022-12-01T09:14:16;98.20;;;33.17;;
13933;SDS011;7039;52.168;9.866;2022-12-01T09:16:43;90.87;;;35.43;;
13933;SDS011;7039;52.168;9.866;2022-12-01T09:19:11;86.40;;;31.40;;
13933;SDS011;7039;52.168;9.866;2022-12-01T09:21:37;92.87;;;32.60;;
13933;SDS011;7039;52.168;9.866;2022-12-01T09:24:04;99.83;;;31.47;;
13933;SDS011;7039;52.168;9.866;2022-12-01T09:26:32;98.87;;;31.07;;
13933;SDS011;7039;52.168;9.866;2022-12-01T09:29:00;80.40;;;29.77;;
13933;SDS011;7039;52.168;9.866;2022-12-01T09:31:30;90.90;;;30.23;;
13933;SDS011;7039;52.168;9.866;2022-12-01T09:33:57;95.13;;;31.37;;
13933;SDS011;7039;52.168;9.866;2022-12-01T09:36:25;88.27;;;30.80;;
13933;SDS011;7039;52.168;9.866;2022-12-01T09:38:52;92.40;;;32.40;;
13933;SDS011;7039;52.168;9.866;2022-12-01T09:41:19;89.73;;;30.17;;
13933;SDS011;7039;52.168;9.866;2022-12-01T09:43:50;88.03;;;30.03;;
13933;SDS011;7039;52.168;9.866;2022-12-01T09:46:24;79.93;;;29.80;;
13933;SDS011;7039;52.168;9.866;2022-12-01T09:48:53;93.60;;;32.40;;
13933;SDS011;7039;52.168;9.866;2022-12-01T09:51:22;94.07;;;34.00;;
13933;SDS011;7039;52.168;9.866;2022-12-01T09:53:51;95.40;;;31.87;;
13933;SDS011;7039;52.168;9.866;2022-12-01T09:56:21;96.37;;;30.67;;
13933;SDS011;7039;52.168;9.866;2022-12-01T09:58:51;98.07;;;31.33;;
13933;SDS011;7039;52.168;9.866;2022-12-01T10:01:23;85.73;;;30.67;;
13933;SDS011;7039;52.168;9.866;2022-12-01T10:03:56;93.87;;;29.37;;
13933;SDS011;7039;52.168;9.866;2022-12-01T10:06:28;114.63;;;42.30;;
13933;SDS011;7039;52.168;9.866;2022-12-01T10:09:04;95.53;;;33.53;;
13933;SDS011;7039;52.168;9.866;2022-12-01T10:11:41;85.60;;;31.73;;
13933;SDS011;7039;52.168;9.866;2022-12-01T10:14:11;70.27;;;28.97;;
13933;SDS011;7039;52.168;9.866;2022-12-01T10:16:43;70.00;;;28.60;;
13933;SDS011;7039;52.168;9.866;2022-12-01T10:19:14;75.37;;;29.63;;
13933;SDS011;7039;52.168;9.866;2022-12-01T10:21:51;83.00;;;31.00;;
13933;SDS011;7039;52.168;9.866;2022-12-01T10:24:34;63.87;;;24.53;;
13933;SDS011;7039;52.168;9.866;2022-12-01T10:27:14;72.20;;;26.07;;
13933;SDS011;7039;52.168;9.866;2022-12-01T10:29:47;67.67;;;25.47;;
13933;SDS011;7039;52.168;9.866;2022-12-01T10:32:24;71.17;;;26.67;;
13933;SDS011;7039;52.168;9.866;2022-12-01T10:34:56;76.77;;;28.10;;
13933;SDS011;7039;52.168;9.866;2022-12-01T10:37:24;78.40;;;27.43;;
13933;SDS011;7039;52.168;9.866;2022-12-01T10:39:54;82.63;;;28.43;;
13933;SDS011;7039;52.168;9.866;2022-12-01T10:42:25;63.63;;;26.17;;
13933;SDS011;7039;52.168;9.866;2022-12-01T10:44:54;78.30;;;30.23;;
13933;SDS011;7039;52.168;9.866;2022-12-01T10:47:24;73.37;;;28.43;;
13933;SDS011;7039;52.168;9.866;2022-12-01T10:49:52;80.97;;;26.63;;
13933;SDS011;7039;52.168;9.866;2022-12-01T10:52:32;84.63;;;28.77;;
13933;SDS011;7039;52.168;9.866;2022-12-01T10:55:00;80.63;;;27.67;;
13933;SDS011;7039;52.168;9.866;2022-12-01T10:57:28;87.33;;;29.17;;
13933;SDS011;7039;52.168;9.866;2022-12-01T10:59:56;81.80;;;28.50;;
13933;SDS011;7039;52.168;9.866;2022-12-01T11:02:28;79.53;;;28.60;;
13933;SDS011;7039;52.168;9.866;2022-12-01T11:04:56;84.80;;;28.63;;
13933;SDS011;7039;52.168;9.866;2022-12-01T11:07:26;82.77;;;28.97;;
13933;SDS011;7039;52.168;9.866;2022-12-01T11:10:01;77.80;;;28.63;;
13933;SDS011;7039;52.168;9.866;2022-12-01T11:12:31;85.50;;;29.67;;
13933;SDS011;7039;52.168;9.866;2022-12-01T11:14:58;84.83;;;27.97;;
13933;SDS011;7039;52.168;9.866;2022-12-01T11:17:30;81.37;;;28.93;;
13933;SDS011;7039;52.168;9.866;2022-12-01T11:19:59;76.10;;;30.10;;
13933;SDS011;7039;52.168;9.866;2022-12-01T11:22:50;75.23;;;27.37;;
13933;SDS011;7039;52.168;9.866;2022-12-01T11:25:17;73.27;;;26.27;;
13933;SDS011;7039;52.168;9.866;2022-12-01T11:27:47;83.33;;;29.13;;
13933;SDS011;7039;52.168;9.866;2022-12-01T11:30:19;81.30;;;28.37;;
13933;SDS011;7039;52.168;9.866;2022-12-01T11:32:51;77.80;;;28.93;;
13933;SDS011;7039;52.168;9.866;2022-12-01T11:35:21;80.27;;;28.43;;
13933;SDS011;7039;52.168;9.866;2022-12-01T11:37:49;88.10;;;31.50;;
13933;SDS011;7039;52.168;9.866;2022-12-01T11:40:19;75.57;;;27.33;;
13933;SDS011;7039;52.168;9.866;2022-12-01T11:42:50;74.70;;;27.07;;
13933;SDS011;7039;52.168;9.866;2022-12-01T11:45:22;77.93;;;27.93;;
13933;SDS011;7039;52.168;9.866;2022-12-01T11:48:01;73.93;;;27.30;;
13933;SDS011;7039;52.168;9.866;2022-12-01T11:50:31;73.73;;;27.13;;
13933;SDS011;7039;52.168;9.866;2022-12-01T11:52:59;81.80;;;34.23;;
13933;SDS011;7039;52.168;9.866;2022-12-01T11:55:26;81.07;;;29.03;;
13933;SDS011;7039;52.168;9.866;2022-12-01T11:57:55;85.03;;;37.53;;
13933;SDS011;7039;52.168;9.866;2022-12-01T12:00:25;74.53;;;27.77;;
13933;SDS011;7039;52.168;9.866;2022-12-01T12:02:59;70.40;;;28.67;;
13933;SDS011;7039;52.168;9.866;2022-12-01T12:05:50;74.33;;;28.80;;
13933;SDS011;7039;52.168;9.866;2022-12-01T12:08:27;85.60;;;28.73;;
13933;SDS011;7039;52.168;9.866;2022-12-01T12:11:06;65.57;;;27.73;;
13933;SDS011;7039;52.168;9.866;2022-12-01T12:13:43;77.93;;;27.80;;
13933;SDS011;7039;52.168;9.866;2022-12-01T12:16:26;66.10;;;26.53;;
13933;SDS011;7039;52.168;9.866;2022-12-01T12:19:06;71.90;;;26.07;;
13933;SDS011;7039;52.168;9.866;2022-12-01T12:21:50;74.43;;;27.83;;
13933;SDS011;7039;52.168;9.866;2022-12-01T12:24:31;73.07;;;28.60;;
13933;SDS011;7039;52.168;9.866;2022-12-01T12:27:07;75.73;;;28.67;;
13933;SDS011;7039;52.168;9.866;2022-12-01T12:29:46;78.70;;;27.00;;
13933;SDS011;7039;52.168;9.866;2022-12-01T12:32:23;75.50;;;28.37;;
13933;SDS011;7039;52.168;9.866;2022-12-01T12:35:00;76.93;;;28.20;;
13933;SDS011;7039;52.168;9.866;2022-12-01T12:37:36;69.57;;;27.33;;
13933;SDS011;7039;52.168;9.866;2022-12-01T12:40:21;83.27;;;27.50;;
13933;SDS011;7039;52.168;9.866;2022-12-01T12:43:01;79.20;;;27.30;;
13933;SDS011;7039;52.168;9.866;2022-12-01T12:45:46;67.90;;;25.60;;
13933;SDS011;7039;52.168;9.866;2022-12-01T12:48:24;80.10;;;27.90;;
13933;SDS011;7039;52.168;9.866;2022-12-01T12:50:59;68.80;;;26.27;;
13933;SDS011;7039;52.168;9.866;2022-12-01T12:53:33;84.70;;;28.07;;
13933;SDS011;7039;52.168;9.866;2022-12-01T12:56:06;77.23;;;29.47;;
13933;SDS011;7039;52.168;9.866;2022-12-01T12:58:40;80.00;;;28.40;;
13933;SDS011;7039;52.168;9.866;2022-12-01T13:01:20;77.07;;;29.10;;
13933;SDS011;7039;52.168;9.866;2022-12-01T13:03:50;81.50;;;27.90;;
13933;SDS011;7039;52.168;9.866;2022-12-01T13:06:25;81.13;;;28.20;;
13933;SDS011;7039;52.168;9.866;2022-12-01T13:08:56;82.53;;;28.40;;
13933;SDS011;7039;52.168;9.866;2022-12-01T13:11:28;96.60;;;31.20;;
13933;SDS011;7039;52.168;9.866;2022-12-01T13:13:59;84.50;;;29.07;;
13933;SDS011;7039;52.168;9.866;2022-12-01T13:16:31;76.93;;;27.30;;
13933;SDS011;7039;52.168;9.866;2022-12-01T13:19:01;77.90;;;26.87;;
13933;SDS011;7039;52.168;9.866;2022-12-01T13:21:36;83.40;;;28.07;;
13933;SDS011;7039;52.168;9.866;2022-12-01T13:24:07;90.70;;;29.83;;
13933;SDS011;7039;52.168;9.866;2022-12-01T13:26:37;81.90;;;27.57;;
13933;SDS011;7039;52.168;9.866;2022-12-01T13:29:06;77.53;;;26.07;;
13933;SDS011;7039;52.168;9.866;2022-12-01T13:31:40;72.23;;;26.53;;
13933;SDS011;7039;52.168;9.866;2022-12-01T13:34:14;74.23;;;25.97;;
13933;SDS011;7039;52.168;9.866;2022-12-01T13:36:48;72.07;;;26.57;;
13933;SDS011;7039;52.168;9.866;2022-12-01T13:39:17;69.77;;;26.03;;
13933;SDS011;7039;52.168;9.866;2022-12-01T13:41:45;65.50;;;23.50;;
13933;SDS011;7039;52.168;9.866;2022-12-01T13:44:23;63.93;;;23.13;;
13933;SDS011;7039;52.168;9.866;2022-12-01T13:46:56;62.33;;;23.43;;
13933;SDS011;7039;52.168;9.866;2022-12-01T13:49:34;66.73;;;24.43;;
13933;SDS011;7039;52.168;9.866;2022-12-01T13:52:17;64.70;;;24.40;;
13933;SDS011;7039;52.168;9.866;2022-12-01T14:03:59;66.03;;;24.30;;
13933;SDS011;7039;52.168;9.866;2022-12-01T14:06:48;72.37;;;23.83;;
13933;SDS011;7039;52.168;9.866;2022-12-01T14:09:36;69.57;;;23.60;;
13933;SDS011;7039;52.168;9.866;2022-12-01T14:12:13;74.90;;;24.33;;
13933;SDS011;7039;52.168;9.866;2022-12-01T14:14:44;72.97;;;25.20;;
13933;SDS011;7039;52.168;9.866;2022-12-01T14:17:23;69.90;;;22.90;;
13933;SDS011;7039;52.168;9.866;2022-12-01T14:19:51;125.37;;;41.03;;
13933;SDS011;7039;52.168;9.866;2022-12-01T14:22:29;180.47;;;61.57;;
13933;SDS011;7039;52.168;9.866;2022-12-01T14:25:00;98.40;;;32.87;;
13933;SDS011;7039;52.168;9.866;2022-12-01T14:27:34;83.13;;;26.37;;
13933;SDS011;7039;52.168;9.866;2022-12-01T14:36:15;81.30;;;26.27;;
13933;SDS011;7039;52.168;9.866;2022-12-01T14:38:46;84.83;;;26.03;;
13933;SDS011;7039;52.168;9.866;2022-12-01T14:41:20;82.83;;;29.07;;
13933;SDS011;7039;52.168;9.866;2022-12-01T14:43:51;86.13;;;26.73;;
13933;SDS011;7039;52.168;9.866;2022-12-01T14:46:32;86.87;;;27.33;;
13933;SDS011;7039;52.168;9.866;2022-12-01T14:49:07;83.83;;;26.53;;
13933;SDS011;7039;52.168;9.866;2022-12-01T14:51:38;89.33;;;28.27;;
13933;SDS011;7039;52.168;9.866;2022-12-01T14:54:11;84.10;;;26.63;;
13933;SDS011;7039;52.168;9.866;2022-12-01T14:56:43;78.77;;;25.47;;
13933;SDS011;7039;52.168;9.866;2022-12-01T14:59:13;77.30;;;26.63;;
13933;SDS011;7039;52.168;9.866;2022-12-01T15:01:44;69.90;;;24.20;;
13933;SDS011;7039;52.168;9.866;2022-12-01T15:04:10;82.00;;;26.57;;
13933;SDS011;7039;52.168;9.866;2022-12-01T15:06:37;74.03;;;25.23;;